Ninoy Aquino International Airport
RPLL : now visible

Airfield :











YOU CAN JOIN US ON...

 
LOGIN :

Register | Disclaimer

   EN    FR    IT 

 









Legend :    VFR   Marginal VFR   IFR   Intensive IFR   Very Intensive IFR
Visi :
Ceiling :
>= 8 km
>= 3000ft
5 to 8 km
1000 to 3000 ft
1500m to 5 km
500 to 1000 ft
800 to 1500m
200 to 500 ft
< 800m
< 200 ft
Symbols :   Thunderstorms  Fog  Heavy snow  Heavy precipitations  Wind > 20 kt






- Airport Elevation : 75 ft
- IATA code : MNL


RPLL - Ninoy Aquino International

CURRENT METAR :
  • 300200Z 32005KT 280V020 9999 FEW025 31/26 Q1012 RMK A2988

EXPIRED METARs :
  • 300100Z 27005KT 240V320 9999 SCT022 29/26 Q1012 RMK A2988
  • 300000Z 01005KT 330V050 9999 FEW018 29/25 Q1012 RMK A2988
  • 292300Z VRB02KT 9999 SCT018 27/25 Q1011 NOSIG RMK A2985

TAF TAF RPLL
Valid from the 30 at 00:00 until the 31 at 06:00 UTC


292300Z 3000/3106 10005KT 9999 FEW023 SCT100 TX32/3005Z TN26/3021Z
TEMPO 3000/3003 SCT023
TEMPO 3003/3006 32007KT SCT023 BKN100
TEMPO 3006/3012 VRB05KT -SHRA FEW022CB SCT023 BKN100
RPHI FIR / Asia



MET'MAP, your aeronautical weather chart ! - Copyright ORBIFLY December 2007 - Disclaimer

ORBIFLY MET'MAP TEAM :

Programming & Development : Alexandra Zaïnal
Concept & original design : Baudouin d'Aumeries
Assistance for programming : Marc-Olivier Méhu
Technical & hardware support : Manuel Goepfert

Contact : metmap@orbifly.com




SOURCES & CREDITS :

   NOAA       Earth
Advisory